createdAt,value
2017-04-01T00:00:42.274Z,0
2017-04-01T00:01:42.259Z,0
2017-04-01T00:02:42.244Z,0
2017-04-01T00:03:42.227Z,0
2017-04-01T00:04:42.217Z,0
2017-04-01T00:05:42.198Z,0
2017-04-01T00:06:41.892Z,0
2017-04-01T00:07:42.173Z,0
2017-04-01T00:08:41.861Z,0
2017-04-01T00:09:41.848Z,0
2017-04-01T00:10:42.132Z,0
2017-04-01T00:11:41.823Z,0
2017-04-01T00:12:42.103Z,0
2017-04-01T00:13:42.089Z,0
2017-04-01T00:14:42.081Z,0
2017-04-01T00:15:42.062Z,0
2017-04-01T00:16:42.050Z,0
2017-04-01T00:17:42.041Z,0
2017-04-01T00:18:41.718Z,0
2017-04-01T00:19:41.712Z,0
2017-04-01T00:20:41.697Z,0
2017-04-01T00:21:41.680Z,0
2017-04-01T00:22:41.972Z,0
2017-04-01T00:23:41.659Z,0
2017-04-01T00:24:41.945Z,0
2017-04-01T00:25:41.934Z,0
2017-04-01T00:26:41.917Z,0
2017-04-01T00:27:41.903Z,0
2017-04-01T00:28:41.886Z,0
2017-04-01T00:29:41.573Z,0
2017-04-01T00:30:41.860Z,0
2017-04-01T00:31:41.845Z,0
2017-04-01T00:32:41.828Z,0
2017-04-01T00:33:41.823Z,0
2017-04-01T00:34:41.806Z,0
2017-04-01T00:35:41.794Z,0
2017-04-01T00:36:41.779Z,0
2017-04-01T00:37:41.764Z,0
2017-04-01T00:38:41.758Z,0
2017-04-01T00:39:41.428Z,0
2017-04-01T00:40:41.730Z,0
2017-04-01T00:41:41.702Z,0
2017-04-01T00:42:41.698Z,0
2017-04-01T00:43:41.375Z,0
2017-04-01T00:44:41.666Z,0
2017-04-01T00:45:41.659Z,0
2017-04-01T00:46:41.634Z,0
2017-04-01T00:47:41.621Z,0
2017-04-01T00:48:41.609Z,0
2017-04-01T00:49:41.597Z,0
2017-04-01T00:50:41.278Z,0
2017-04-01T00:51:41.568Z,0
2017-04-01T00:52:40.950Z,0
2017-04-01T00:53:41.543Z,0
2017-04-01T00:54:41.527Z,0
2017-04-01T00:55:41.208Z,0
2017-04-01T00:56:41.194Z,0
2017-04-01T00:57:41.486Z,0
2017-04-01T00:58:41.468Z,0
2017-04-01T00:59:41.457Z,0
2017-04-01T01:00:41.447Z,0
2017-04-01T01:01:41.427Z,0
2017-04-01T01:02:41.114Z,0
2017-04-01T01:03:41.402Z,0
2017-04-01T01:04:41.391Z,0
2017-04-01T01:05:41.375Z,0
2017-04-01T01:06:41.362Z,0
2017-04-01T01:07:41.044Z,0
2017-04-01T01:08:41.031Z,0
2017-04-01T01:09:41.349Z,0
2017-04-01T01:10:41.305Z,0
2017-04-01T01:11:41.296Z,0
2017-04-01T01:12:41.287Z,0
2017-04-01T01:13:41.266Z,0
2017-04-01T01:14:40.948Z,0
2017-04-01T01:15:41.243Z,0
2017-04-01T01:16:41.225Z,0
2017-04-01T01:17:40.913Z,0
2017-04-01T01:18:41.199Z,0
2017-04-01T01:19:41.183Z,0
2017-04-01T01:20:40.863Z,0
2017-04-01T01:21:40.850Z,0
2017-04-01T01:22:40.833Z,0
2017-04-01T01:23:41.122Z,0
2017-04-01T01:24:41.111Z,0
2017-04-01T01:25:41.096Z,0
2017-04-01T01:26:40.785Z,0
2017-04-01T01:27:41.069Z,0
2017-04-01T01:28:40.755Z,0
2017-04-01T01:29:41.042Z,0
2017-04-01T01:30:41.021Z,0
2017-04-01T01:31:41.016Z,0
2017-04-01T01:32:40.692Z,0
2017-04-01T01:33:40.677Z,0
2017-04-01T01:34:40.972Z,0
2017-04-01T01:35:40.955Z,0
2017-04-01T01:36:40.644Z,0
2017-04-01T01:37:40.623Z,0
2017-04-01T01:38:40.612Z,0
2017-04-01T01:39:40.894Z,0
2017-04-01T01:40:40.881Z,0
2017-04-01T01:41:40.870Z,0
2017-04-01T01:42:40.853Z,0
2017-04-01T01:43:40.845Z,0
2017-04-01T01:44:40.525Z,0
2017-04-01T01:45:40.811Z,0
2017-04-01T01:46:40.798Z,0
2017-04-01T01:47:40.481Z,0
2017-04-01T01:48:40.768Z,0
2017-04-01T01:49:40.491Z,0
2017-04-01T01:50:40.741Z,0
2017-04-01T01:51:40.726Z,0
2017-04-01T01:52:40.709Z,0
2017-04-01T01:53:40.698Z,0
2017-04-01T01:54:40.685Z,0
2017-04-01T01:55:40.365Z,0
2017-04-01T01:56:40.691Z,0
2017-04-01T01:57:40.334Z,0
2017-04-01T01:58:40.316Z,0
2017-04-01T01:59:40.607Z,0
2017-04-01T02:00:40.589Z,0
2017-04-01T02:01:39.676Z,0
2017-04-01T02:02:40.567Z,0
2017-04-01T02:03:40.576Z,0
2017-04-01T02:04:39.933Z,0
2017-04-01T02:05:40.520Z,0
2017-04-01T02:06:40.509Z,0
2017-04-01T02:07:40.189Z,0
2017-04-01T02:08:40.178Z,0
2017-04-01T02:09:40.462Z,0
2017-04-01T02:10:40.447Z,0
2017-04-01T02:11:40.137Z,0
2017-04-01T02:12:40.415Z,0
2017-04-01T02:13:40.403Z,0
2017-04-01T02:14:39.785Z,0
2017-04-01T02:15:40.381Z,0
2017-04-01T02:16:40.055Z,0
2017-04-01T02:17:40.341Z,0
2017-04-01T02:18:40.029Z,0
2017-04-01T02:19:40.320Z,0
2017-04-01T02:20:40.304Z,0
2017-04-01T02:21:40.288Z,0
2017-04-01T02:22:40.271Z,0
2017-04-01T02:23:39.961Z,0
2017-04-01T02:24:39.942Z,0
2017-04-01T02:25:40.232Z,0
2017-04-01T02:26:40.217Z,0
2017-04-01T02:27:40.217Z,0
2017-04-01T02:28:40.184Z,0
2017-04-01T02:29:40.174Z,0
2017-04-01T02:30:39.855Z,0
2017-04-01T02:31:40.148Z,0
2017-04-01T02:32:39.526Z,0
2017-04-01T02:33:39.812Z,0
2017-04-01T02:34:40.107Z,0
2017-04-01T02:35:40.086Z,0
2017-04-01T02:36:39.469Z,0
2017-04-01T02:37:40.060Z,0
2017-04-01T02:38:40.045Z,0
2017-04-01T02:39:40.035Z,0
2017-04-01T02:40:40.054Z,0
2017-04-01T02:41:39.703Z,0
2017-04-01T02:42:39.990Z,0
2017-04-01T02:43:39.668Z,0
2017-04-01T02:44:39.977Z,0
2017-04-01T02:45:39.644Z,0
2017-04-01T02:46:39.931Z,0
2017-04-01T02:47:39.615Z,0
2017-04-01T02:48:39.902Z,0
2017-04-01T02:49:39.890Z,0
2017-04-01T02:50:39.881Z,0
2017-04-01T02:51:39.866Z,0
2017-04-01T02:52:39.849Z,0
2017-04-01T02:53:39.833Z,0
2017-04-01T02:54:39.823Z,0
2017-04-01T02:55:39.804Z,0
2017-04-01T02:56:39.494Z,0
2017-04-01T02:57:39.792Z,0
2017-04-01T02:58:39.461Z,0
2017-04-01T02:59:39.448Z,0
2017-04-01T03:00:39.431Z,0
2017-04-01T03:01:39.721Z,0
2017-04-01T03:02:39.706Z,0
2017-04-01T03:03:39.696Z,0
2017-04-01T03:04:39.679Z,0
2017-04-01T03:05:39.665Z,0
2017-04-01T03:06:39.655Z,0
2017-04-01T03:07:39.337Z,0
2017-04-01T03:08:39.627Z,0
2017-04-01T03:09:39.308Z,0
2017-04-01T03:10:39.597Z,0
2017-04-01T03:11:39.282Z,0
2017-04-01T03:12:39.265Z,0
2017-04-01T03:13:39.562Z,0
2017-04-01T03:14:39.574Z,0
2017-04-01T03:15:39.227Z,0
2017-04-01T03:16:39.516Z,0
2017-04-01T03:17:39.493Z,0
2017-04-01T03:18:39.480Z,0
2017-04-01T03:19:39.474Z,0
2017-04-01T03:20:39.459Z,0
2017-04-01T03:21:39.442Z,0
2017-04-01T03:22:39.127Z,0
2017-04-01T03:23:39.419Z,0
2017-04-01T03:24:39.105Z,0
2017-04-01T03:25:39.399Z,0
2017-04-01T03:26:39.367Z,0
2017-04-01T03:27:39.398Z,0
2017-04-01T03:28:39.043Z,0
2017-04-01T03:29:39.329Z,0
2017-04-01T03:30:39.316Z,0
2017-04-01T03:31:39.298Z,0
2017-04-01T03:32:39.235Z,0
2017-04-01T03:33:39.273Z,0
2017-04-01T03:34:39.260Z,0
2017-04-01T03:35:39.246Z,0
2017-04-01T03:36:39.226Z,0
2017-04-01T03:37:39.208Z,0
2017-04-01T03:38:39.195Z,0
2017-04-01T03:39:39.186Z,0
2017-04-01T03:40:39.167Z,0
2017-04-01T03:41:38.852Z,0
2017-04-01T03:42:39.242Z,0
2017-04-01T03:43:39.132Z,0
2017-04-01T03:44:39.114Z,0
2017-04-01T03:45:39.105Z,0
2017-04-01T03:46:39.087Z,0
2017-04-01T03:47:39.069Z,0
2017-04-01T03:48:39.057Z,0
2017-04-01T03:49:39.046Z,0
2017-04-01T03:50:38.429Z,0
2017-04-01T03:51:39.024Z,0
2017-04-01T03:52:38.707Z,0
2017-04-01T03:53:38.988Z,0
2017-04-01T03:54:38.971Z,0
2017-04-01T03:55:38.964Z,0
2017-04-01T03:56:38.945Z,0
2017-04-01T03:57:38.940Z,0
2017-04-01T03:58:38.611Z,0
2017-04-01T03:59:38.900Z,0
2017-04-01T04:00:38.588Z,0
2017-04-01T04:01:38.874Z,0
2017-04-01T04:02:38.853Z,0
2017-04-01T04:03:38.835Z,0
2017-04-01T04:04:38.826Z,0
2017-04-01T04:05:38.810Z,0
2017-04-01T04:06:38.496Z,0
2017-04-01T04:07:38.780Z,0
2017-04-01T04:08:38.767Z,0
2017-04-01T04:09:38.753Z,0
2017-04-01T04:10:38.747Z,0
2017-04-01T04:11:38.719Z,0
2017-04-01T04:12:38.709Z,0
2017-04-01T04:13:38.693Z,0
2017-04-01T04:14:38.374Z,0
2017-04-01T04:15:38.660Z,0
2017-04-01T04:16:38.343Z,0
2017-04-01T04:17:38.629Z,0
2017-04-01T04:18:38.619Z,0
2017-04-01T04:19:38.601Z,0
2017-04-01T04:20:38.587Z,0
2017-04-01T04:21:38.566Z,4
2017-04-01T04:22:38.558Z,4
2017-04-01T04:23:38.535Z,0
2017-04-01T04:24:38.521Z,4
2017-04-01T04:25:38.512Z,4
2017-04-01T04:26:38.495Z,4
2017-04-01T04:27:38.488Z,8
2017-04-01T04:28:38.460Z,8
2017-04-01T04:29:38.150Z,8
2017-04-01T04:30:38.433Z,8
2017-04-01T04:31:38.414Z,16
2017-04-01T04:32:38.408Z,16
2017-04-01T04:33:38.487Z,20
2017-04-01T04:34:38.374Z,24
2017-04-01T04:35:38.055Z,32
2017-04-01T04:36:38.384Z,36
2017-04-01T04:37:38.331Z,44
2017-04-01T04:38:38.322Z,52
2017-04-01T04:39:38.297Z,68
2017-04-01T04:40:38.279Z,76
2017-04-01T04:41:37.967Z,88
2017-04-01T04:42:38.255Z,112
2017-04-01T04:43:38.236Z,128
2017-04-01T04:44:38.224Z,152
2017-04-01T04:45:38.208Z,176
2017-04-01T04:46:38.190Z,204
2017-04-01T04:47:37.874Z,232
2017-04-01T04:48:38.167Z,268
2017-04-01T04:49:37.850Z,304
2017-04-01T04:50:38.132Z,348
2017-04-01T04:51:38.117Z,396
2017-04-01T04:52:38.100Z,444
2017-04-01T04:53:38.085Z,500
2017-04-01T04:54:38.068Z,556
2017-04-01T04:55:38.055Z,620
2017-04-01T04:56:38.040Z,688
2017-04-01T04:57:38.016Z,756
2017-04-01T04:58:38.009Z,832
2017-04-01T04:59:37.994Z,924
2017-04-01T05:00:37.975Z,1040
2017-04-01T05:01:37.960Z,1148
2017-04-01T05:02:37.956Z,1252
2017-04-01T05:03:37.637Z,1360
2017-04-01T05:04:37.611Z,1456
2017-04-01T05:05:37.898Z,1524
2017-04-01T05:06:37.892Z,1568
2017-04-01T05:07:37.867Z,1668
2017-04-01T05:08:37.889Z,1904
2017-04-01T05:09:37.834Z,2176
2017-04-01T05:10:37.822Z,2336
2017-04-01T05:11:37.805Z,2436
2017-04-01T05:12:37.793Z,2532
2017-04-01T05:13:37.773Z,2660
2017-04-01T05:14:37.756Z,2684
2017-04-01T05:15:37.742Z,2596
2017-04-01T05:16:37.726Z,2656
2017-04-01T05:17:37.706Z,2756
2017-04-01T05:18:37.393Z,2864
2017-04-01T05:19:37.680Z,2980
2017-04-01T05:20:37.696Z,3112
2017-04-01T05:21:37.647Z,3236
2017-04-01T05:22:37.637Z,3440
2017-04-01T05:23:37.630Z,3904
2017-04-01T05:24:37.604Z,4540
2017-04-01T05:25:37.587Z,5012
2017-04-01T05:26:37.576Z,4896
2017-04-01T05:27:37.554Z,4472
2017-04-01T05:28:37.538Z,4168
2017-04-01T05:29:37.528Z,4312
2017-04-01T05:30:37.548Z,4512
2017-04-01T05:31:37.498Z,5356
2017-04-01T05:32:37.483Z,6764
2017-04-01T05:33:37.464Z,7740
2017-04-01T05:34:37.455Z,8496
2017-04-01T05:35:37.132Z,8172
2017-04-01T05:36:37.419Z,7620
2017-04-01T05:37:37.408Z,7984
2017-04-01T05:38:37.393Z,8068
2017-04-01T05:39:37.381Z,8416
2017-04-01T05:40:37.363Z,8896
2017-04-01T05:41:37.347Z,10060
2017-04-01T05:42:37.337Z,10656
2017-04-01T05:43:37.322Z,10912
2017-04-01T05:44:37.306Z,11584
2017-04-01T05:45:37.292Z,12456
2017-04-01T05:46:37.274Z,13112
2017-04-01T05:47:36.961Z,13156
2017-04-01T05:48:37.246Z,13008
2017-04-01T05:49:37.234Z,12920
2017-04-01T05:50:37.215Z,13692
2017-04-01T05:51:36.904Z,14752
2017-04-01T05:52:37.191Z,14496
2017-04-01T05:53:37.209Z,13316
2017-04-01T05:54:37.169Z,12312
2017-04-01T05:55:36.854Z,13636
2017-04-01T05:56:36.835Z,16448
2017-04-01T05:57:37.126Z,17280
2017-04-01T05:58:37.111Z,16960
2017-04-01T05:59:37.096Z,18016
2017-04-01T06:00:37.086Z,17568
2017-04-01T06:01:37.066Z,18080
2017-04-01T06:02:37.052Z,18720
2017-04-01T06:03:37.041Z,18400
2017-04-01T06:04:36.720Z,18624
2017-04-01T06:05:37.015Z,19232
2017-04-01T06:06:37.003Z,20192
2017-04-01T06:07:36.986Z,21024
2017-04-01T06:08:36.668Z,21088
2017-04-01T06:09:36.957Z,20000
2017-04-01T06:10:36.941Z,23072
2017-04-01T06:11:36.930Z,22848
2017-04-01T06:12:36.910Z,22752
2017-04-01T06:13:36.898Z,23456
2017-04-01T06:14:36.878Z,23168
2017-04-01T06:15:36.866Z,23680
2017-04-01T06:16:36.855Z,23840
2017-04-01T06:17:36.839Z,24544
2017-04-01T06:18:36.823Z,25152
2017-04-01T06:19:36.520Z,23424
2017-04-01T06:20:36.799Z,23808
2017-04-01T06:21:36.793Z,25408
2017-04-01T06:22:36.798Z,26816
2017-04-01T06:23:36.457Z,27936
2017-04-01T06:24:36.447Z,28768
2017-04-01T06:25:36.725Z,29568
2017-04-01T06:26:36.123Z,28608
2017-04-01T06:27:36.706Z,28736
2017-04-01T06:28:36.692Z,30048
2017-04-01T06:29:36.672Z,30112
2017-04-01T06:30:36.672Z,31040
2017-04-01T06:31:36.350Z,32448
2017-04-01T06:32:36.344Z,31072
2017-04-01T06:33:36.628Z,29280
2017-04-01T06:34:36.618Z,28224
2017-04-01T06:35:36.603Z,28672
2017-04-01T06:36:35.985Z,30144
2017-04-01T06:37:36.572Z,32576
2017-04-01T06:38:36.587Z,32512
2017-04-01T06:39:36.549Z,35168
2017-04-01T06:40:36.239Z,37792
2017-04-01T06:41:36.522Z,36064
2017-04-01T06:42:36.512Z,33120
2017-04-01T06:43:36.499Z,32448
2017-04-01T06:44:36.490Z,31136
2017-04-01T06:45:36.473Z,31904
2017-04-01T06:46:36.462Z,32128
2017-04-01T06:47:36.446Z,32992
2017-04-01T06:48:36.435Z,32224
2017-04-01T06:49:36.434Z,29568
2017-04-01T06:50:36.414Z,32544
2017-04-01T06:51:36.405Z,36160
2017-04-01T06:52:36.393Z,29984
2017-04-01T06:53:36.378Z,31840
2017-04-01T06:54:36.064Z,25472
2017-04-01T06:55:36.356Z,27808
2017-04-01T06:56:36.345Z,25024
2017-04-01T06:57:36.336Z,24192
2017-04-01T06:58:36.324Z,24800
2017-04-01T06:59:36.306Z,23456
2017-04-01T07:00:35.997Z,20704
2017-04-01T07:01:36.284Z,20544
2017-04-01T07:02:36.276Z,19072
2017-04-01T07:03:36.264Z,17760
2017-04-01T07:04:35.952Z,21696
2017-04-01T07:05:36.238Z,25792
2017-04-01T07:06:35.930Z,25440
2017-04-01T07:07:35.909Z,30272
2017-04-01T07:08:36.200Z,31744
2017-04-01T07:09:36.194Z,32672
2017-04-01T07:10:36.182Z,34496
2017-04-01T07:11:36.166Z,35712
2017-04-01T07:12:36.158Z,36672
2017-04-01T07:13:36.144Z,39488
2017-04-01T07:14:36.132Z,39168
2017-04-01T07:15:36.116Z,32448
2017-04-01T07:16:36.107Z,27104
2017-04-01T07:17:35.490Z,25920
2017-04-01T07:18:36.086Z,28864
2017-04-01T07:19:36.117Z,31616
2017-04-01T07:20:35.762Z,39072
2017-04-01T07:21:36.049Z,41344
2017-04-01T07:22:36.045Z,46368
2017-04-01T07:23:36.028Z,46400
2017-04-01T07:24:35.721Z,45344
2017-04-01T07:25:36.005Z,43072
2017-04-01T07:26:35.997Z,45600
2017-04-01T07:27:35.991Z,48032
2017-04-01T07:28:35.970Z,44288
2017-04-01T07:29:35.958Z,45408
2017-04-01T07:30:35.957Z,48128
2017-04-01T07:31:35.938Z,49408
2017-04-01T07:32:35.930Z,43072
2017-04-01T07:33:35.620Z,45024
2017-04-01T07:34:35.908Z,50016
2017-04-01T07:35:35.901Z,50208
2017-04-01T07:36:35.888Z,45472
2017-04-01T07:37:35.871Z,47840
2017-04-01T07:38:35.862Z,53120
2017-04-01T07:39:35.851Z,56928
2017-04-01T07:40:35.535Z,54656
2017-04-01T07:41:35.829Z,48928
2017-04-01T07:42:35.814Z,50816
2017-04-01T07:43:35.806Z,51584
2017-04-01T07:44:35.792Z,48192
2017-04-01T07:45:35.787Z,42016
2017-04-01T07:46:35.775Z,36960
2017-04-01T07:47:35.752Z,37536
2017-04-01T07:48:35.743Z,48096
2017-04-01T07:49:35.436Z,59872
2017-04-01T07:50:35.724Z,56672
2017-04-01T07:51:35.708Z,49568
2017-04-01T07:52:35.708Z,49920
2017-04-01T07:53:35.684Z,52288
2017-04-01T07:54:35.370Z,53984
2017-04-01T07:55:35.669Z,55648
2017-04-01T07:56:35.678Z,55392
2017-04-01T07:57:35.634Z,55648
2017-04-01T07:58:35.627Z,58240
2017-04-01T07:59:35.613Z,58656
2017-04-01T08:00:35.298Z,56512
2017-04-01T08:01:35.296Z,59360
2017-04-01T08:02:35.581Z,61472
2017-04-01T08:03:35.572Z,61952
2017-04-01T08:04:35.554Z,58048
2017-04-01T08:05:35.242Z,57312
2017-04-01T08:06:35.531Z,55392
2017-04-01T08:07:35.523Z,51168
2017-04-01T08:08:35.514Z,55392
2017-04-01T08:09:35.501Z,60672
2017-04-01T08:10:35.494Z,63392
2017-04-01T08:11:35.177Z,56832
2017-04-01T08:12:35.467Z,54496
2017-04-01T08:13:35.456Z,54816
2017-04-01T08:14:35.444Z,54880
2017-04-01T08:15:35.430Z,57408
2017-04-01T08:16:35.423Z,58848
2017-04-01T08:17:35.416Z,60192
2017-04-01T08:18:35.398Z,61280
2017-04-01T08:19:35.086Z,61504
2017-04-01T08:20:35.075Z,61280
2017-04-01T08:21:35.372Z,57632
2017-04-01T08:22:35.354Z,61952
2017-04-01T08:23:35.354Z,66272
2017-04-01T08:24:35.337Z,61056
2017-04-01T08:25:35.324Z,59712
2017-04-01T08:26:35.320Z,70624
2017-04-01T08:27:35.005Z,72576
2017-04-01T08:28:35.296Z,77088
2017-04-01T08:29:34.981Z,67456
2017-04-01T08:30:35.278Z,58080
2017-04-01T08:31:34.963Z,55232
2017-04-01T08:32:35.253Z,62624
2017-04-01T08:33:34.941Z,64064
2017-04-01T08:34:35.231Z,60704
2017-04-01T08:35:35.217Z,63072
2017-04-01T08:36:35.211Z,64512
2017-04-01T08:37:35.203Z,56832
2017-04-01T08:38:35.190Z,60480
2017-04-01T08:39:35.178Z,71136
2017-04-01T08:40:34.864Z,75360
2017-04-01T08:41:35.158Z,73056
2017-04-01T08:42:35.147Z,74080
2017-04-01T08:43:35.134Z,72256
2017-04-01T08:44:35.128Z,63808
2017-04-01T08:45:35.113Z,64544
2017-04-01T08:46:35.104Z,67264
2017-04-01T08:47:35.088Z,64864
2017-04-01T08:48:34.779Z,65856
2017-04-01T08:49:34.767Z,66976
2017-04-01T08:50:34.763Z,72960
2017-04-01T08:51:35.053Z,67552
2017-04-01T08:52:35.041Z,66368
2017-04-01T08:53:35.024Z,82592
2017-04-01T08:54:35.017Z,80608
2017-04-01T08:55:35.014Z,73376
2017-04-01T08:56:34.997Z,71584
2017-04-01T08:57:34.382Z,74400
2017-04-01T08:58:34.973Z,63552
2017-04-01T08:59:34.965Z,66592
2017-04-01T09:00:34.955Z,67808
2017-04-01T09:01:34.952Z,74944
2017-04-01T09:02:34.931Z,66720
2017-04-01T09:03:34.922Z,63104
2017-04-01T09:04:34.913Z,65952
2017-04-01T09:05:34.900Z,68736
2017-04-01T09:06:34.899Z,70592
2017-04-01T09:07:34.575Z,65024
2017-04-01T09:08:34.869Z,67104
2017-04-01T09:09:34.865Z,66112
2017-04-01T09:10:34.851Z,69152
2017-04-01T09:11:34.838Z,64032
2017-04-01T09:12:34.821Z,65344
2017-04-01T09:13:34.509Z,79680
2017-04-01T09:14:34.802Z,75008
2017-04-01T09:15:34.801Z,69312
2017-04-01T09:16:34.478Z,70240
2017-04-01T09:17:34.768Z,72928
2017-04-01T09:18:34.452Z,69792
2017-04-01T09:19:34.749Z,69888
2017-04-01T09:20:34.738Z,74400
2017-04-01T09:21:34.725Z,79264
2017-04-01T09:22:34.710Z,69920
2017-04-01T09:23:34.101Z,77440
2017-04-01T09:24:34.691Z,84576
2017-04-01T09:25:34.370Z,77760
2017-04-01T09:26:34.368Z,78336
2017-04-01T09:27:34.656Z,77856
2017-04-01T09:28:34.640Z,76544
2017-04-01T09:29:34.632Z,75648
2017-04-01T09:30:34.625Z,70784
2017-04-01T09:31:34.612Z,73824
2017-04-01T09:32:34.607Z,76032
2017-04-01T09:33:34.587Z,78400
2017-04-01T09:34:34.274Z,81760
2017-04-01T09:35:34.266Z,78880
2017-04-01T09:36:34.554Z,73248
2017-04-01T09:37:34.253Z,76416
2017-04-01T09:38:34.534Z,77856
2017-04-01T09:39:34.523Z,64480
2017-04-01T09:40:34.519Z,73056
2017-04-01T09:41:34.506Z,83456
2017-04-01T09:42:34.502Z,84832
2017-04-01T09:43:34.482Z,85280
2017-04-01T09:44:34.474Z,78496
2017-04-01T09:45:34.462Z,70112
2017-04-01T09:46:34.148Z,68544
2017-04-01T09:47:34.440Z,77792
2017-04-01T09:48:34.433Z,69184
2017-04-01T09:49:34.639Z,78944
2017-04-01T09:50:34.110Z,74368
2017-04-01T09:51:34.099Z,81344
2017-04-01T09:52:34.391Z,83488
2017-04-01T09:53:34.590Z,82848
2017-04-01T09:54:34.571Z,86688
2017-04-01T09:55:34.356Z,85376
2017-04-01T09:56:34.355Z,84416
2017-04-01T09:57:34.339Z,77376
2017-04-01T09:58:34.325Z,76576
2017-04-01T09:59:34.009Z,73376
2017-04-01T10:00:34.307Z,70272
2017-04-01T10:01:34.298Z,69728
2017-04-01T10:02:34.277Z,72320
2017-04-01T10:03:34.267Z,69760
2017-04-01T10:04:34.260Z,66080
2017-04-01T10:05:34.249Z,65920
2017-04-01T10:06:33.937Z,68736
2017-04-01T10:07:34.231Z,72736
2017-04-01T10:08:34.216Z,74080
2017-04-01T10:09:34.209Z,74816
2017-04-01T10:10:33.894Z,69344
2017-04-01T10:11:33.883Z,74848
2017-04-01T10:12:34.172Z,77280
2017-04-01T10:13:34.204Z,71264
2017-04-01T10:14:34.156Z,64480
2017-04-01T10:15:34.140Z,67968
2017-04-01T10:16:34.138Z,68512
2017-04-01T10:17:34.120Z,67840
2017-04-01T10:18:34.108Z,77472
2017-04-01T10:19:47.728Z,69664
2017-04-01T10:20:34.085Z,77536
2017-04-01T10:21:34.080Z,78016
2017-04-01T10:22:34.069Z,70656
2017-04-01T10:23:34.058Z,71200
2017-04-01T10:24:47.425Z,70400
2017-04-01T10:25:34.035Z,73920
2017-04-01T10:26:34.024Z,67616
2017-04-01T10:27:34.012Z,63712
2017-04-01T10:28:34.005Z,65888
2017-04-01T10:29:34.199Z,62368
2017-04-01T10:30:33.978Z,63776
2017-04-01T10:31:33.970Z,63040
2017-04-01T10:32:33.959Z,61728
2017-04-01T10:33:33.985Z,58688
2017-04-01T10:34:33.940Z,59296
2017-04-01T10:35:33.625Z,59456
2017-04-01T10:36:33.920Z,55936
2017-04-01T10:37:33.908Z,54688
2017-04-01T10:38:33.897Z,53632
2017-04-01T10:39:33.879Z,53472
2017-04-01T10:40:33.567Z,51264
2017-04-01T10:41:33.868Z,50560
2017-04-01T10:42:33.851Z,50432
2017-04-01T10:43:33.837Z,52032
2017-04-01T10:44:33.833Z,53248
2017-04-01T10:45:33.812Z,52000
2017-04-01T10:46:33.807Z,55552
2017-04-01T10:47:33.795Z,56864
2017-04-01T10:48:33.777Z,57952
2017-04-01T10:49:33.766Z,55136
2017-04-01T10:50:33.756Z,54656
2017-04-01T10:51:33.447Z,52256
2017-04-01T10:52:33.731Z,51648
2017-04-01T10:53:33.719Z,51744
2017-04-01T10:54:33.618Z,51104
2017-04-01T10:55:33.699Z,50912
2017-04-01T10:56:33.692Z,49920
2017-04-01T10:57:33.672Z,49920
2017-04-01T10:58:33.659Z,50784
2017-04-01T10:59:33.852Z,51360
2017-04-01T11:00:33.337Z,50816
2017-04-01T11:01:33.323Z,50240
2017-04-01T11:02:33.615Z,50112
2017-04-01T11:03:33.803Z,55104
2017-04-01T11:04:33.798Z,55008
2017-04-01T11:05:33.576Z,58432
2017-04-01T11:06:33.565Z,61184
2017-04-01T11:07:33.553Z,63680
2017-04-01T11:08:33.539Z,59872
2017-04-01T11:09:33.532Z,58176
2017-04-01T11:10:33.513Z,58080
2017-04-01T11:11:33.505Z,57280
2017-04-01T11:12:33.485Z,56320
2017-04-01T11:13:33.479Z,57696
2017-04-01T11:14:33.467Z,56864
2017-04-01T11:15:33.454Z,57184
2017-04-01T11:16:33.449Z,56512
2017-04-01T11:17:33.434Z,57888
2017-04-01T11:18:33.117Z,60256
2017-04-01T11:19:33.408Z,60128
2017-04-01T11:20:33.399Z,60960
2017-04-01T11:21:33.386Z,62240
2017-04-01T11:22:33.375Z,60480
2017-04-01T11:23:33.359Z,63264
2017-04-01T11:24:32.948Z,62944
2017-04-01T11:25:33.339Z,68224
2017-04-01T11:26:33.320Z,72064
2017-04-01T11:27:33.310Z,77952
2017-04-01T11:28:33.304Z,73888
2017-04-01T11:29:33.288Z,72672
2017-04-01T11:30:33.277Z,69344
2017-04-01T11:31:33.263Z,69856
2017-04-01T11:32:47.864Z,60768
2017-04-01T11:33:33.251Z,57344
2017-04-01T11:34:33.437Z,56320
2017-04-01T11:35:33.221Z,54144
2017-04-01T11:36:33.203Z,55680
2017-04-01T11:37:33.207Z,63808
2017-04-01T11:38:32.887Z,70560
2017-04-01T11:39:46.810Z,77440
2017-04-01T11:40:33.167Z,82080
2017-04-01T11:41:32.852Z,84608
2017-04-01T11:42:33.145Z,75744
2017-04-01T11:43:33.135Z,68416
2017-04-01T11:44:33.126Z,71296
2017-04-01T11:45:33.111Z,63520
2017-04-01T11:46:33.093Z,61248
2017-04-01T11:47:33.094Z,55968
2017-04-01T11:48:32.478Z,49568
2017-04-01T11:49:33.069Z,47616
2017-04-01T11:50:33.058Z,47040
2017-04-01T11:51:33.046Z,47712
2017-04-01T11:52:33.028Z,45792
2017-04-01T11:53:33.022Z,44832
2017-04-01T11:54:33.009Z,44384
2017-04-01T11:55:32.735Z,44736
2017-04-01T11:56:32.994Z,46336
2017-04-01T11:57:32.977Z,46720
2017-04-01T11:58:32.666Z,45824
2017-04-01T11:59:32.652Z,45376
2017-04-01T12:00:32.939Z,45600
2017-04-01T12:01:32.934Z,47552
2017-04-01T12:02:32.925Z,48864
2017-04-01T12:03:32.908Z,52320
2017-04-01T12:04:32.797Z,53408
2017-04-01T12:05:32.887Z,52608
2017-04-01T12:06:32.872Z,52864
2017-04-01T12:07:32.962Z,52896
2017-04-01T12:08:32.846Z,54112
2017-04-01T12:09:32.834Z,53024
2017-04-01T12:10:32.817Z,52960
2017-04-01T12:11:32.812Z,54432
2017-04-01T12:12:32.496Z,59008
2017-04-01T12:13:32.782Z,62496
2017-04-01T12:14:32.676Z,58208
2017-04-01T12:15:32.463Z,61568
2017-04-01T12:16:32.790Z,58144
2017-04-01T12:17:32.735Z,51936
2017-04-01T12:18:32.724Z,49824
2017-04-01T12:19:32.711Z,48000
2017-04-01T12:20:32.401Z,46272
2017-04-01T12:21:32.693Z,45312
2017-04-01T12:22:32.681Z,44768
2017-04-01T12:23:32.665Z,43968
2017-04-01T12:24:32.690Z,42944
2017-04-01T12:25:32.648Z,41568
2017-04-01T12:26:32.635Z,41600
2017-04-01T12:27:32.624Z,43264
2017-04-01T12:28:32.613Z,44096
2017-04-01T12:29:32.636Z,44704
2017-04-01T12:30:32.588Z,45056
2017-04-01T12:31:32.573Z,44704
2017-04-01T12:32:32.566Z,44096
2017-04-01T12:33:32.552Z,42784
2017-04-01T12:34:32.236Z,40736
2017-04-01T12:35:32.521Z,38816
2017-04-01T12:36:32.516Z,38976
2017-04-01T12:37:32.509Z,40672
2017-04-01T12:38:32.500Z,42784
2017-04-01T12:39:32.484Z,44224
2017-04-01T12:40:32.458Z,44544
2017-04-01T12:41:32.453Z,45312
2017-04-01T12:42:32.442Z,44704
2017-04-01T12:43:32.427Z,44864
2017-04-01T12:44:32.318Z,45056
2017-04-01T12:45:32.402Z,44704
2017-04-01T12:46:32.393Z,43968
2017-04-01T12:47:32.379Z,43680
2017-04-01T12:48:32.568Z,43648
2017-04-01T12:49:32.353Z,44576
2017-04-01T12:50:32.041Z,46304
2017-04-01T12:51:32.335Z,46560
2017-04-01T12:52:32.323Z,46688
2017-04-01T12:53:32.308Z,47968
2017-04-01T12:54:32.294Z,47040
2017-04-01T12:55:32.284Z,46112
2017-04-01T12:56:32.268Z,45440
2017-04-01T12:57:32.261Z,44640
2017-04-01T12:58:32.243Z,44832
2017-04-01T12:59:32.238Z,45056
2017-04-01T13:00:31.915Z,45408
2017-04-01T13:01:32.207Z,44640
2017-04-01T13:02:32.194Z,42656
2017-04-01T13:03:31.877Z,40256
2017-04-01T13:04:32.171Z,38144
2017-04-01T13:05:32.152Z,36320
2017-04-01T13:06:32.150Z,35840
2017-04-01T13:07:32.159Z,37312
2017-04-01T13:08:32.119Z,38880
2017-04-01T13:09:32.113Z,39616
2017-04-01T13:10:32.097Z,39648
2017-04-01T13:11:32.081Z,39520
2017-04-01T13:12:32.079Z,39200
2017-04-01T13:13:32.058Z,38976
2017-04-01T13:14:32.045Z,38688
2017-04-01T13:15:31.936Z,38144
2017-04-01T13:16:32.024Z,37408
2017-04-01T13:17:32.006Z,36832
2017-04-01T13:18:32.033Z,36704
2017-04-01T13:19:31.381Z,36608
2017-04-01T13:20:31.976Z,37088
2017-04-01T13:21:31.961Z,37472
2017-04-01T13:22:31.658Z,37344
2017-04-01T13:23:31.942Z,37056
2017-04-01T13:24:31.930Z,36704
2017-04-01T13:25:31.916Z,36320
2017-04-01T13:26:31.908Z,36064
2017-04-01T13:27:31.890Z,35744
2017-04-01T13:28:31.879Z,35456
2017-04-01T13:29:32.025Z,35232
2017-04-01T13:30:31.858Z,35104
2017-04-01T13:31:31.845Z,35328